sensor_id;sensor_type;location;lat;lon;timestamp;P1;durP1;ratioP1;P2;durP2;ratioP2
13114;SDS011;6623;52.120;8.660;2023-09-19T00:01:28;1.55;;;0.90;;
13114;SDS011;6623;52.120;8.660;2023-09-19T00:03:55;1.30;;;0.80;;
13114;SDS011;6623;52.120;8.660;2023-09-19T00:06:22;1.42;;;0.80;;
13114;SDS011;6623;52.120;8.660;2023-09-19T00:08:51;1.60;;;0.93;;
13114;SDS011;6623;52.120;8.660;2023-09-19T00:11:16;2.53;;;1.20;;
13114;SDS011;6623;52.120;8.660;2023-09-19T00:13:42;1.50;;;0.90;;
13114;SDS011;6623;52.120;8.660;2023-09-19T00:16:08;1.20;;;1.00;;
13114;SDS011;6623;52.120;8.660;2023-09-19T00:18:35;1.48;;;0.98;;
13114;SDS011;6623;52.120;8.660;2023-09-19T00:21:03;1.40;;;0.90;;
13114;SDS011;6623;52.120;8.660;2023-09-19T00:23:30;1.48;;;0.80;;
13114;SDS011;6623;52.120;8.660;2023-09-19T00:25:59;1.13;;;0.90;;
13114;SDS011;6623;52.120;8.660;2023-09-19T00:28:26;1.80;;;0.90;;
13114;SDS011;6623;52.120;8.660;2023-09-19T00:30:51;1.05;;;0.95;;
13114;SDS011;6623;52.120;8.660;2023-09-19T00:33:19;1.80;;;1.10;;
13114;SDS011;6623;52.120;8.660;2023-09-19T00:35:49;1.67;;;1.00;;
13114;SDS011;6623;52.120;8.660;2023-09-19T00:38:15;1.77;;;0.85;;
13114;SDS011;6623;52.120;8.660;2023-09-19T00:40:43;2.03;;;1.00;;
13114;SDS011;6623;52.120;8.660;2023-09-19T00:43:09;1.63;;;0.90;;
13114;SDS011;6623;52.120;8.660;2023-09-19T00:45:36;1.38;;;0.90;;
13114;SDS011;6623;52.120;8.660;2023-09-19T00:48:07;2.63;;;1.05;;
13114;SDS011;6623;52.120;8.660;2023-09-19T00:50:34;1.33;;;1.00;;
13114;SDS011;6623;52.120;8.660;2023-09-19T00:53:00;1.75;;;1.10;;
13114;SDS011;6623;52.120;8.660;2023-09-19T00:55:26;1.38;;;1.10;;
13114;SDS011;6623;52.120;8.660;2023-09-19T00:57:55;1.92;;;0.90;;
13114;SDS011;6623;52.120;8.660;2023-09-19T01:00:21;1.50;;;1.00;;
13114;SDS011;6623;52.120;8.660;2023-09-19T01:02:48;1.35;;;1.08;;
13114;SDS011;6623;52.120;8.660;2023-09-19T01:05:14;2.17;;;1.10;;
13114;SDS011;6623;52.120;8.660;2023-09-19T01:07:41;1.65;;;1.15;;
13114;SDS011;6623;52.120;8.660;2023-09-19T01:10:07;3.30;;;1.10;;
13114;SDS011;6623;52.120;8.660;2023-09-19T01:29:16;2.05;;;1.13;;
13114;SDS011;6623;52.120;8.660;2023-09-19T01:32:04;1.77;;;1.10;;
13114;SDS011;6623;52.120;8.660;2023-09-19T01:34:46;2.63;;;1.30;;
13114;SDS011;6623;52.120;8.660;2023-09-19T01:37:17;1.52;;;1.10;;
13114;SDS011;6623;52.120;8.660;2023-09-19T01:39:46;3.45;;;1.33;;
13114;SDS011;6623;52.120;8.660;2023-09-19T01:45:12;1.90;;;1.05;;
13114;SDS011;6623;52.120;8.660;2023-09-19T01:47:52;2.63;;;1.42;;
13114;SDS011;6623;52.120;8.660;2023-09-19T01:50:30;1.65;;;1.20;;
13114;SDS011;6623;52.120;8.660;2023-09-19T01:55:55;1.08;;;0.90;;
13114;SDS011;6623;52.120;8.660;2023-09-19T02:01:10;3.30;;;1.23;;
13114;SDS011;6623;52.120;8.660;2023-09-19T02:03:41;2.53;;;1.40;;
13114;SDS011;6623;52.120;8.660;2023-09-19T02:06:12;3.17;;;1.30;;
13114;SDS011;6623;52.120;8.660;2023-09-19T02:08:39;2.40;;;1.30;;
13114;SDS011;6623;52.120;8.660;2023-09-19T02:11:04;4.60;;;1.30;;
13114;SDS011;6623;52.120;8.660;2023-09-19T02:13:31;2.00;;;1.20;;
13114;SDS011;6623;52.120;8.660;2023-09-19T02:15:56;2.75;;;1.38;;
13114;SDS011;6623;52.120;8.660;2023-09-19T02:18:22;2.30;;;1.20;;
13114;SDS011;6623;52.120;8.660;2023-09-19T02:20:48;2.35;;;1.20;;
13114;SDS011;6623;52.120;8.660;2023-09-19T02:23:13;3.33;;;1.30;;
13114;SDS011;6623;52.120;8.660;2023-09-19T02:25:40;3.03;;;1.33;;
13114;SDS011;6623;52.120;8.660;2023-09-19T02:28:06;2.25;;;1.23;;
13114;SDS011;6623;52.120;8.660;2023-09-19T02:30:32;3.75;;;1.40;;
13114;SDS011;6623;52.120;8.660;2023-09-19T02:32:57;1.98;;;1.20;;
13114;SDS011;6623;52.120;8.660;2023-09-19T02:35:26;4.05;;;1.40;;
13114;SDS011;6623;52.120;8.660;2023-09-19T02:37:53;2.72;;;1.27;;
13114;SDS011;6623;52.120;8.660;2023-09-19T02:40:18;2.35;;;1.30;;
13114;SDS011;6623;52.120;8.660;2023-09-19T02:42:45;2.65;;;1.55;;
13114;SDS011;6623;52.120;8.660;2023-09-19T02:45:13;3.13;;;1.35;;
13114;SDS011;6623;52.120;8.660;2023-09-19T02:47:43;2.58;;;1.30;;
13114;SDS011;6623;52.120;8.660;2023-09-19T02:50:09;3.30;;;1.60;;
13114;SDS011;6623;52.120;8.660;2023-09-19T02:52:38;2.95;;;1.50;;
13114;SDS011;6623;52.120;8.660;2023-09-19T02:55:08;4.18;;;1.40;;
13114;SDS011;6623;52.120;8.660;2023-09-19T02:57:34;2.75;;;1.42;;
13114;SDS011;6623;52.120;8.660;2023-09-19T03:00:01;5.10;;;1.50;;
13114;SDS011;6623;52.120;8.660;2023-09-19T03:02:32;3.13;;;1.40;;
13114;SDS011;6623;52.120;8.660;2023-09-19T03:04:59;3.92;;;1.48;;
13114;SDS011;6623;52.120;8.660;2023-09-19T03:07:25;3.53;;;1.52;;
13114;SDS011;6623;52.120;8.660;2023-09-19T03:09:51;3.20;;;1.17;;
13114;SDS011;6623;52.120;8.660;2023-09-19T03:12:18;3.90;;;1.55;;
13114;SDS011;6623;52.120;8.660;2023-09-19T03:14:43;2.65;;;1.27;;
13114;SDS011;6623;52.120;8.660;2023-09-19T03:17:09;3.33;;;1.50;;
13114;SDS011;6623;52.120;8.660;2023-09-19T03:19:34;2.80;;;1.27;;
13114;SDS011;6623;52.120;8.660;2023-09-19T03:22:00;2.17;;;1.33;;
13114;SDS011;6623;52.120;8.660;2023-09-19T03:24:27;4.22;;;1.48;;
13114;SDS011;6623;52.120;8.660;2023-09-19T03:26:52;4.13;;;1.50;;
13114;SDS011;6623;52.120;8.660;2023-09-19T03:29:18;3.55;;;1.40;;
13114;SDS011;6623;52.120;8.660;2023-09-19T03:31:44;3.22;;;1.65;;
13114;SDS011;6623;52.120;8.660;2023-09-19T03:34:10;3.33;;;1.40;;
13114;SDS011;6623;52.120;8.660;2023-09-19T03:36:36;3.10;;;1.60;;
13114;SDS011;6623;52.120;8.660;2023-09-19T03:39:02;4.43;;;1.73;;
13114;SDS011;6623;52.120;8.660;2023-09-19T03:41:31;3.70;;;1.60;;
13114;SDS011;6623;52.120;8.660;2023-09-19T03:43:58;1.98;;;1.30;;
13114;SDS011;6623;52.120;8.660;2023-09-19T03:46:23;2.42;;;1.50;;
13114;SDS011;6623;52.120;8.660;2023-09-19T03:48:49;4.07;;;1.60;;
13114;SDS011;6623;52.120;8.660;2023-09-19T03:51:15;4.03;;;1.52;;
13114;SDS011;6623;52.120;8.660;2023-09-19T03:53:41;3.95;;;1.70;;
13114;SDS011;6623;52.120;8.660;2023-09-19T03:56:06;2.78;;;1.40;;
13114;SDS011;6623;52.120;8.660;2023-09-19T03:58:33;4.20;;;1.70;;
13114;SDS011;6623;52.120;8.660;2023-09-19T04:01:03;2.45;;;1.48;;
13114;SDS011;6623;52.120;8.660;2023-09-19T04:03:28;3.00;;;1.60;;
13114;SDS011;6623;52.120;8.660;2023-09-19T04:06:00;3.72;;;1.50;;
13114;SDS011;6623;52.120;8.660;2023-09-19T04:08:27;3.30;;;1.52;;
13114;SDS011;6623;52.120;8.660;2023-09-19T04:10:52;3.40;;;1.38;;
13114;SDS011;6623;52.120;8.660;2023-09-19T04:13:18;2.25;;;1.30;;
13114;SDS011;6623;52.120;8.660;2023-09-19T04:15:44;2.08;;;1.30;;
13114;SDS011;6623;52.120;8.660;2023-09-19T04:18:11;4.32;;;1.67;;
13114;SDS011;6623;52.120;8.660;2023-09-19T04:20:37;4.38;;;1.52;;
13114;SDS011;6623;52.120;8.660;2023-09-19T04:23:02;3.80;;;1.60;;
13114;SDS011;6623;52.120;8.660;2023-09-19T04:25:30;2.50;;;1.50;;
13114;SDS011;6623;52.120;8.660;2023-09-19T04:27:56;3.55;;;1.48;;
13114;SDS011;6623;52.120;8.660;2023-09-19T04:30:22;2.78;;;1.30;;
13114;SDS011;6623;52.120;8.660;2023-09-19T04:32:48;4.60;;;1.70;;
13114;SDS011;6623;52.120;8.660;2023-09-19T04:35:15;3.22;;;1.75;;
13114;SDS011;6623;52.120;8.660;2023-09-19T04:37:41;4.68;;;1.60;;
13114;SDS011;6623;52.120;8.660;2023-09-19T04:40:07;3.40;;;1.70;;
13114;SDS011;6623;52.120;8.660;2023-09-19T04:42:42;3.75;;;1.70;;
13114;SDS011;6623;52.120;8.660;2023-09-19T04:45:09;3.13;;;1.67;;
13114;SDS011;6623;52.120;8.660;2023-09-19T04:47:35;3.00;;;1.55;;
13114;SDS011;6623;52.120;8.660;2023-09-19T04:50:07;3.22;;;1.58;;
13114;SDS011;6623;52.120;8.660;2023-09-19T04:52:38;4.03;;;1.63;;
13114;SDS011;6623;52.120;8.660;2023-09-19T04:55:08;4.20;;;1.70;;
13114;SDS011;6623;52.120;8.660;2023-09-19T04:57:35;3.13;;;1.55;;
13114;SDS011;6623;52.120;8.660;2023-09-19T05:00:02;4.13;;;1.70;;
13114;SDS011;6623;52.120;8.660;2023-09-19T05:02:32;4.20;;;1.70;;
13114;SDS011;6623;52.120;8.660;2023-09-19T05:04:59;4.57;;;1.70;;
13114;SDS011;6623;52.120;8.660;2023-09-19T05:07:25;3.80;;;1.60;;
13114;SDS011;6623;52.120;8.660;2023-09-19T05:09:51;3.25;;;1.40;;
13114;SDS011;6623;52.120;8.660;2023-09-19T05:12:16;2.83;;;1.60;;
13114;SDS011;6623;52.120;8.660;2023-09-19T05:14:44;2.92;;;1.42;;
13114;SDS011;6623;52.120;8.660;2023-09-19T05:17:10;2.30;;;1.30;;
13114;SDS011;6623;52.120;8.660;2023-09-19T05:19:35;4.28;;;1.50;;
13114;SDS011;6623;52.120;8.660;2023-09-19T05:22:01;3.40;;;1.80;;
13114;SDS011;6623;52.120;8.660;2023-09-19T05:24:29;3.03;;;1.60;;
13114;SDS011;6623;52.120;8.660;2023-09-19T05:26:55;3.05;;;1.50;;
13114;SDS011;6623;52.120;8.660;2023-09-19T05:29:22;4.32;;;1.70;;
13114;SDS011;6623;52.120;8.660;2023-09-19T05:31:47;4.32;;;1.67;;
13114;SDS011;6623;52.120;8.660;2023-09-19T05:34:14;3.67;;;1.42;;
13114;SDS011;6623;52.120;8.660;2023-09-19T05:36:40;3.38;;;1.60;;
13114;SDS011;6623;52.120;8.660;2023-09-19T05:39:06;3.75;;;1.55;;
13114;SDS011;6623;52.120;8.660;2023-09-19T05:41:34;3.47;;;1.35;;
13114;SDS011;6623;52.120;8.660;2023-09-19T05:44:05;3.38;;;1.70;;
13114;SDS011;6623;52.120;8.660;2023-09-19T05:46:32;4.53;;;2.00;;
13114;SDS011;6623;52.120;8.660;2023-09-19T05:48:57;4.15;;;1.63;;
13114;SDS011;6623;52.120;8.660;2023-09-19T05:51:23;4.10;;;1.73;;
13114;SDS011;6623;52.120;8.660;2023-09-19T05:53:50;3.58;;;1.60;;
13114;SDS011;6623;52.120;8.660;2023-09-19T05:56:15;3.72;;;1.58;;
13114;SDS011;6623;52.120;8.660;2023-09-19T05:58:43;3.00;;;1.50;;
13114;SDS011;6623;52.120;8.660;2023-09-19T06:01:09;3.90;;;1.73;;
13114;SDS011;6623;52.120;8.660;2023-09-19T06:03:35;3.67;;;1.60;;
13114;SDS011;6623;52.120;8.660;2023-09-19T06:06:03;3.03;;;1.50;;
13114;SDS011;6623;52.120;8.660;2023-09-19T06:08:31;3.63;;;1.60;;
13114;SDS011;6623;52.120;8.660;2023-09-19T06:11:00;3.58;;;1.60;;
13114;SDS011;6623;52.120;8.660;2023-09-19T06:13:27;3.83;;;1.77;;
13114;SDS011;6623;52.120;8.660;2023-09-19T06:15:54;3.80;;;1.65;;
13114;SDS011;6623;52.120;8.660;2023-09-19T06:18:21;5.25;;;1.80;;
13114;SDS011;6623;52.120;8.660;2023-09-19T06:20:51;2.92;;;1.40;;
13114;SDS011;6623;52.120;8.660;2023-09-19T06:23:16;4.20;;;1.70;;
13114;SDS011;6623;52.120;8.660;2023-09-19T06:25:43;4.60;;;1.90;;
13114;SDS011;6623;52.120;8.660;2023-09-19T06:28:08;4.35;;;1.88;;
13114;SDS011;6623;52.120;8.660;2023-09-19T06:30:37;5.47;;;1.73;;
13114;SDS011;6623;52.120;8.660;2023-09-19T06:33:05;5.35;;;2.00;;
13114;SDS011;6623;52.120;8.660;2023-09-19T06:35:31;3.95;;;1.83;;
13114;SDS011;6623;52.120;8.660;2023-09-19T06:37:58;4.80;;;1.98;;
13114;SDS011;6623;52.120;8.660;2023-09-19T06:40:24;4.32;;;1.60;;
13114;SDS011;6623;52.120;8.660;2023-09-19T06:42:52;4.88;;;1.73;;
13114;SDS011;6623;52.120;8.660;2023-09-19T06:45:19;4.35;;;1.95;;
13114;SDS011;6623;52.120;8.660;2023-09-19T06:47:46;3.83;;;1.60;;
13114;SDS011;6623;52.120;8.660;2023-09-19T06:50:19;3.58;;;1.70;;
13114;SDS011;6623;52.120;8.660;2023-09-19T06:52:47;4.00;;;1.50;;
13114;SDS011;6623;52.120;8.660;2023-09-19T06:55:15;3.80;;;1.60;;
13114;SDS011;6623;52.120;8.660;2023-09-19T06:57:42;3.58;;;1.60;;
13114;SDS011;6623;52.120;8.660;2023-09-19T07:00:09;2.92;;;1.40;;
13114;SDS011;6623;52.120;8.660;2023-09-19T07:02:43;3.40;;;1.73;;
13114;SDS011;6623;52.120;8.660;2023-09-19T07:05:30;3.05;;;1.38;;
13114;SDS011;6623;52.120;8.660;2023-09-19T07:07:57;4.72;;;1.77;;
13114;SDS011;6623;52.120;8.660;2023-09-19T07:10:24;4.97;;;1.70;;
13114;SDS011;6623;52.120;8.660;2023-09-19T07:12:59;3.65;;;1.50;;
13114;SDS011;6623;52.120;8.660;2023-09-19T07:15:29;6.53;;;1.60;;
13114;SDS011;6623;52.120;8.660;2023-09-19T07:17:58;5.05;;;1.60;;
13114;SDS011;6623;52.120;8.660;2023-09-19T07:20:25;3.97;;;1.75;;
13114;SDS011;6623;52.120;8.660;2023-09-19T07:22:52;3.92;;;1.45;;
13114;SDS011;6623;52.120;8.660;2023-09-19T07:25:19;4.68;;;1.52;;
13114;SDS011;6623;52.120;8.660;2023-09-19T07:27:46;4.30;;;1.80;;
13114;SDS011;6623;52.120;8.660;2023-09-19T07:30:11;5.50;;;1.90;;
13114;SDS011;6623;52.120;8.660;2023-09-19T07:32:37;4.05;;;1.70;;
13114;SDS011;6623;52.120;8.660;2023-09-19T07:35:04;3.00;;;1.75;;
13114;SDS011;6623;52.120;8.660;2023-09-19T07:37:30;4.30;;;1.67;;
13114;SDS011;6623;52.120;8.660;2023-09-19T07:39:58;3.67;;;1.50;;
13114;SDS011;6623;52.120;8.660;2023-09-19T07:42:24;5.32;;;1.67;;
13114;SDS011;6623;52.120;8.660;2023-09-19T07:44:50;3.72;;;1.52;;
13114;SDS011;6623;52.120;8.660;2023-09-19T07:47:16;5.32;;;1.60;;
13114;SDS011;6623;52.120;8.660;2023-09-19T07:49:42;5.55;;;1.80;;
13114;SDS011;6623;52.120;8.660;2023-09-19T07:52:08;4.28;;;1.70;;
13114;SDS011;6623;52.120;8.660;2023-09-19T07:54:34;4.25;;;1.67;;
13114;SDS011;6623;52.120;8.660;2023-09-19T07:57:00;3.15;;;1.55;;
13114;SDS011;6623;52.120;8.660;2023-09-19T07:59:27;5.40;;;1.88;;
13114;SDS011;6623;52.120;8.660;2023-09-19T08:01:52;4.55;;;1.90;;
13114;SDS011;6623;52.120;8.660;2023-09-19T08:04:18;3.88;;;1.65;;
13114;SDS011;6623;52.120;8.660;2023-09-19T08:06:44;4.82;;;1.75;;
13114;SDS011;6623;52.120;8.660;2023-09-19T08:09:10;3.67;;;1.50;;
13114;SDS011;6623;52.120;8.660;2023-09-19T08:11:37;4.82;;;1.60;;
13114;SDS011;6623;52.120;8.660;2023-09-19T08:14:04;5.32;;;1.85;;
13114;SDS011;6623;52.120;8.660;2023-09-19T08:16:30;4.95;;;1.70;;
13114;SDS011;6623;52.120;8.660;2023-09-19T08:18:56;5.15;;;1.77;;
13114;SDS011;6623;52.120;8.660;2023-09-19T08:21:22;4.40;;;1.52;;
13114;SDS011;6623;52.120;8.660;2023-09-19T08:23:48;4.82;;;1.77;;
13114;SDS011;6623;52.120;8.660;2023-09-19T08:26:14;3.45;;;1.52;;
13114;SDS011;6623;52.120;8.660;2023-09-19T08:28:40;4.45;;;1.63;;
13114;SDS011;6623;52.120;8.660;2023-09-19T08:31:06;4.45;;;1.65;;
13114;SDS011;6623;52.120;8.660;2023-09-19T08:33:36;6.07;;;1.60;;
13114;SDS011;6623;52.120;8.660;2023-09-19T08:36:02;6.20;;;1.70;;
13114;SDS011;6623;52.120;8.660;2023-09-19T08:38:30;3.80;;;1.60;;
13114;SDS011;6623;52.120;8.660;2023-09-19T08:40:58;4.70;;;1.60;;
13114;SDS011;6623;52.120;8.660;2023-09-19T08:43:24;4.80;;;1.65;;
13114;SDS011;6623;52.120;8.660;2023-09-19T08:45:53;3.53;;;1.55;;
13114;SDS011;6623;52.120;8.660;2023-09-19T08:48:29;5.35;;;1.60;;
13114;SDS011;6623;52.120;8.660;2023-09-19T08:50:56;3.25;;;1.58;;
13114;SDS011;6623;52.120;8.660;2023-09-19T08:53:50;4.57;;;1.67;;
13114;SDS011;6623;52.120;8.660;2023-09-19T08:56:19;3.95;;;1.80;;
13114;SDS011;6623;52.120;8.660;2023-09-19T08:58:51;3.88;;;1.63;;
13114;SDS011;6623;52.120;8.660;2023-09-19T09:01:27;3.97;;;1.80;;
13114;SDS011;6623;52.120;8.660;2023-09-19T09:03:53;6.20;;;1.77;;
13114;SDS011;6623;52.120;8.660;2023-09-19T09:06:20;4.05;;;1.75;;
13114;SDS011;6623;52.120;8.660;2023-09-19T09:08:46;5.25;;;1.98;;
13114;SDS011;6623;52.120;8.660;2023-09-19T09:11:12;3.20;;;1.40;;
13114;SDS011;6623;52.120;8.660;2023-09-19T09:13:41;4.55;;;1.65;;
13114;SDS011;6623;52.120;8.660;2023-09-19T09:16:07;4.22;;;1.65;;
13114;SDS011;6623;52.120;8.660;2023-09-19T09:18:34;5.10;;;1.95;;
13114;SDS011;6623;52.120;8.660;2023-09-19T09:21:00;4.20;;;1.70;;
13114;SDS011;6623;52.120;8.660;2023-09-19T09:23:29;3.97;;;1.70;;
13114;SDS011;6623;52.120;8.660;2023-09-19T09:25:57;4.55;;;1.77;;
13114;SDS011;6623;52.120;8.660;2023-09-19T09:28:24;3.85;;;1.60;;
13114;SDS011;6623;52.120;8.660;2023-09-19T09:30:53;4.88;;;2.03;;
13114;SDS011;6623;52.120;8.660;2023-09-19T09:33:20;4.10;;;1.60;;
13114;SDS011;6623;52.120;8.660;2023-09-19T09:35:49;4.60;;;1.83;;
13114;SDS011;6623;52.120;8.660;2023-09-19T09:38:22;5.55;;;1.95;;
13114;SDS011;6623;52.120;8.660;2023-09-19T09:40:52;5.30;;;1.80;;
13114;SDS011;6623;52.120;8.660;2023-09-19T09:43:34;3.42;;;1.50;;
13114;SDS011;6623;52.120;8.660;2023-09-19T09:46:13;3.67;;;1.60;;
13114;SDS011;6623;52.120;8.660;2023-09-19T09:48:46;3.75;;;1.58;;
13114;SDS011;6623;52.120;8.660;2023-09-19T09:51:33;5.50;;;1.90;;
13114;SDS011;6623;52.120;8.660;2023-09-19T09:54:17;5.10;;;1.80;;
13114;SDS011;6623;52.120;8.660;2023-09-19T09:56:56;4.95;;;1.80;;
13114;SDS011;6623;52.120;8.660;2023-09-19T10:02:19;6.05;;;1.77;;
13114;SDS011;6623;52.120;8.660;2023-09-19T10:04:55;4.22;;;1.60;;
13114;SDS011;6623;52.120;8.660;2023-09-19T10:07:35;2.97;;;1.60;;
13114;SDS011;6623;52.120;8.660;2023-09-19T10:10:06;4.22;;;1.80;;
13114;SDS011;6623;52.120;8.660;2023-09-19T10:12:42;5.13;;;1.90;;
13114;SDS011;6623;52.120;8.660;2023-09-19T10:15:11;5.20;;;1.85;;
13114;SDS011;6623;52.120;8.660;2023-09-19T10:17:40;5.00;;;1.67;;
13114;SDS011;6623;52.120;8.660;2023-09-19T10:20:09;3.92;;;1.70;;
13114;SDS011;6623;52.120;8.660;2023-09-19T10:23:03;5.00;;;2.10;;
13114;SDS011;6623;52.120;8.660;2023-09-19T10:25:34;4.28;;;1.65;;
13114;SDS011;6623;52.120;8.660;2023-09-19T10:28:01;2.95;;;1.63;;
13114;SDS011;6623;52.120;8.660;2023-09-19T10:30:31;5.85;;;1.75;;
13114;SDS011;6623;52.120;8.660;2023-09-19T10:33:02;3.90;;;1.70;;
13114;SDS011;6623;52.120;8.660;2023-09-19T10:35:30;5.03;;;1.73;;
13114;SDS011;6623;52.120;8.660;2023-09-19T10:37:59;4.35;;;1.70;;
13114;SDS011;6623;52.120;8.660;2023-09-19T10:40:28;5.32;;;1.92;;
13114;SDS011;6623;52.120;8.660;2023-09-19T10:43:06;3.97;;;1.70;;
13114;SDS011;6623;52.120;8.660;2023-09-19T10:45:33;4.00;;;1.65;;
13114;SDS011;6623;52.120;8.660;2023-09-19T10:48:00;3.55;;;1.65;;
13114;SDS011;6623;52.120;8.660;2023-09-19T10:50:31;5.22;;;1.90;;
13114;SDS011;6623;52.120;8.660;2023-09-19T10:53:02;5.50;;;2.20;;
13114;SDS011;6623;52.120;8.660;2023-09-19T10:55:30;3.13;;;1.40;;
13114;SDS011;6623;52.120;8.660;2023-09-19T10:57:58;3.67;;;1.60;;
13114;SDS011;6623;52.120;8.660;2023-09-19T11:00:25;4.55;;;1.60;;
13114;SDS011;6623;52.120;8.660;2023-09-19T11:05:38;6.53;;;2.13;;
13114;SDS011;6623;52.120;8.660;2023-09-19T11:08:05;4.15;;;1.90;;
13114;SDS011;6623;52.120;8.660;2023-09-19T11:10:48;3.78;;;1.90;;
13114;SDS011;6623;52.120;8.660;2023-09-19T11:13:31;4.25;;;1.88;;
13114;SDS011;6623;52.120;8.660;2023-09-19T11:26:40;5.10;;;1.90;;
13114;SDS011;6623;52.120;8.660;2023-09-19T11:29:31;4.75;;;1.77;;
13114;SDS011;6623;52.120;8.660;2023-09-19T11:31:56;5.13;;;1.90;;
13114;SDS011;6623;52.120;8.660;2023-09-19T11:34:43;7.22;;;1.83;;
13114;SDS011;6623;52.120;8.660;2023-09-19T11:39:39;4.35;;;1.90;;
13114;SDS011;6623;52.120;8.660;2023-09-19T11:45:06;3.92;;;1.58;;
13114;SDS011;6623;52.120;8.660;2023-09-19T11:47:31;3.72;;;1.70;;
13114;SDS011;6623;52.120;8.660;2023-09-19T11:50:00;3.25;;;1.60;;
13114;SDS011;6623;52.120;8.660;2023-09-19T11:52:26;3.42;;;1.70;;
13114;SDS011;6623;52.120;8.660;2023-09-19T11:54:59;4.10;;;1.80;;
13114;SDS011;6623;52.120;8.660;2023-09-19T11:57:26;5.20;;;1.73;;
13114;SDS011;6623;52.120;8.660;2023-09-19T11:59:55;4.18;;;1.48;;
13114;SDS011;6623;52.120;8.660;2023-09-19T12:02:38;4.80;;;1.80;;
13114;SDS011;6623;52.120;8.660;2023-09-19T12:05:07;5.43;;;1.73;;
13114;SDS011;6623;52.120;8.660;2023-09-19T12:07:41;4.97;;;1.83;;
13114;SDS011;6623;52.120;8.660;2023-09-19T12:10:10;5.90;;;1.80;;
13114;SDS011;6623;52.120;8.660;2023-09-19T12:12:39;4.90;;;2.00;;
13114;SDS011;6623;52.120;8.660;2023-09-19T12:15:06;4.97;;;1.77;;
13114;SDS011;6623;52.120;8.660;2023-09-19T12:20:02;3.08;;;1.80;;
13114;SDS011;6623;52.120;8.660;2023-09-19T12:22:46;4.32;;;2.20;;
13114;SDS011;6623;52.120;8.660;2023-09-19T12:25:14;4.40;;;1.60;;
13114;SDS011;6623;52.120;8.660;2023-09-19T12:27:45;5.20;;;1.65;;
13114;SDS011;6623;52.120;8.660;2023-09-19T12:30:13;3.40;;;1.70;;
13114;SDS011;6623;52.120;8.660;2023-09-19T12:32:40;7.38;;;2.05;;
13114;SDS011;6623;52.120;8.660;2023-09-19T12:35:08;3.73;;;1.70;;
13114;SDS011;6623;52.120;8.660;2023-09-19T12:37:36;3.72;;;1.52;;
13114;SDS011;6623;52.120;8.660;2023-09-19T12:40:05;4.88;;;1.83;;
13114;SDS011;6623;52.120;8.660;2023-09-19T12:42:47;4.07;;;1.80;;
13114;SDS011;6623;52.120;8.660;2023-09-19T12:45:13;4.65;;;1.70;;
13114;SDS011;6623;52.120;8.660;2023-09-19T12:47:52;3.97;;;1.73;;
13114;SDS011;6623;52.120;8.660;2023-09-19T12:51:10;2.97;;;1.60;;
13114;SDS011;6623;52.120;8.660;2023-09-19T12:53:41;3.77;;;1.97;;
13114;SDS011;6623;52.120;8.660;2023-09-19T12:56:11;4.17;;;1.77;;
13114;SDS011;6623;52.120;8.660;2023-09-19T12:58:55;4.03;;;1.90;;
13114;SDS011;6623;52.120;8.660;2023-09-19T13:01:23;2.92;;;1.50;;
13114;SDS011;6623;52.120;8.660;2023-09-19T13:06:37;3.63;;;1.67;;
13114;SDS011;6623;52.120;8.660;2023-09-19T13:09:08;3.50;;;1.93;;
13114;SDS011;6623;52.120;8.660;2023-09-19T13:11:37;2.70;;;1.40;;
13114;SDS011;6623;52.120;8.660;2023-09-19T13:16:55;4.53;;;1.60;;
13114;SDS011;6623;52.120;8.660;2023-09-19T13:22:01;2.67;;;1.60;;
13114;SDS011;6623;52.120;8.660;2023-09-19T13:24:28;4.13;;;1.50;;
13114;SDS011;6623;52.120;8.660;2023-09-19T13:26:55;3.55;;;1.60;;
13114;SDS011;6623;52.120;8.660;2023-09-19T13:29:21;4.30;;;1.60;;
13114;SDS011;6623;52.120;8.660;2023-09-19T13:31:48;4.72;;;1.60;;
13114;SDS011;6623;52.120;8.660;2023-09-19T13:34:18;5.05;;;1.77;;
13114;SDS011;6623;52.120;8.660;2023-09-19T13:36:45;4.15;;;1.67;;
13114;SDS011;6623;52.120;8.660;2023-09-19T13:39:13;3.10;;;1.73;;
13114;SDS011;6623;52.120;8.660;2023-09-19T13:41:43;3.20;;;1.60;;
13114;SDS011;6623;52.120;8.660;2023-09-19T13:44:11;3.47;;;1.67;;
13114;SDS011;6623;52.120;8.660;2023-09-19T13:46:37;2.70;;;1.50;;
13114;SDS011;6623;52.120;8.660;2023-09-19T13:49:03;6.33;;;2.20;;
13114;SDS011;6623;52.120;8.660;2023-09-19T13:51:29;3.30;;;1.53;;
13114;SDS011;6623;52.120;8.660;2023-09-19T13:53:58;4.90;;;1.65;;
13114;SDS011;6623;52.120;8.660;2023-09-19T13:56:24;4.30;;;1.85;;
13114;SDS011;6623;52.120;8.660;2023-09-19T13:58:52;3.88;;;1.77;;
13114;SDS011;6623;52.120;8.660;2023-09-19T14:01:18;4.10;;;2.00;;
13114;SDS011;6623;52.120;8.660;2023-09-19T14:03:44;4.23;;;1.70;;
13114;SDS011;6623;52.120;8.660;2023-09-19T14:06:16;4.27;;;1.87;;
13114;SDS011;6623;52.120;8.660;2023-09-19T14:08:42;3.00;;;1.50;;
13114;SDS011;6623;52.120;8.660;2023-09-19T14:11:09;3.83;;;1.52;;
13114;SDS011;6623;52.120;8.660;2023-09-19T14:13:35;3.60;;;1.58;;
13114;SDS011;6623;52.120;8.660;2023-09-19T14:16:04;5.60;;;1.67;;
13114;SDS011;6623;52.120;8.660;2023-09-19T14:18:30;3.87;;;1.60;;
13114;SDS011;6623;52.120;8.660;2023-09-19T14:20:56;3.10;;;1.42;;
13114;SDS011;6623;52.120;8.660;2023-09-19T14:23:22;3.83;;;1.73;;
13114;SDS011;6623;52.120;8.660;2023-09-19T14:25:48;5.70;;;1.57;;
13114;SDS011;6623;52.120;8.660;2023-09-19T14:28:15;3.43;;;1.83;;
13114;SDS011;6623;52.120;8.660;2023-09-19T14:30:40;2.63;;;1.30;;
13114;SDS011;6623;52.120;8.660;2023-09-19T14:33:06;3.75;;;1.73;;
13114;SDS011;6623;52.120;8.660;2023-09-19T14:35:32;4.00;;;1.63;;
13114;SDS011;6623;52.120;8.660;2023-09-19T14:37:58;3.30;;;1.60;;
13114;SDS011;6623;52.120;8.660;2023-09-19T14:40:23;4.35;;;1.80;;
13114;SDS011;6623;52.120;8.660;2023-09-19T14:42:50;5.35;;;1.65;;
13114;SDS011;6623;52.120;8.660;2023-09-19T14:45:16;3.78;;;1.60;;
13114;SDS011;6623;52.120;8.660;2023-09-19T14:47:43;2.72;;;1.30;;
13114;SDS011;6623;52.120;8.660;2023-09-19T14:50:11;3.47;;;1.50;;
13114;SDS011;6623;52.120;8.660;2023-09-19T14:52:37;3.70;;;1.53;;
13114;SDS011;6623;52.120;8.660;2023-09-19T14:55:04;2.47;;;1.45;;
13114;SDS011;6623;52.120;8.660;2023-09-19T14:57:31;3.72;;;1.60;;
13114;SDS011;6623;52.120;8.660;2023-09-19T14:59:57;3.30;;;1.65;;
13114;SDS011;6623;52.120;8.660;2023-09-19T15:02:23;3.90;;;1.60;;
13114;SDS011;6623;52.120;8.660;2023-09-19T15:04:48;4.97;;;1.77;;
13114;SDS011;6623;52.120;8.660;2023-09-19T15:07:15;3.70;;;1.60;;
13114;SDS011;6623;52.120;8.660;2023-09-19T15:09:41;3.80;;;1.57;;
13114;SDS011;6623;52.120;8.660;2023-09-19T15:12:08;3.78;;;1.42;;
13114;SDS011;6623;52.120;8.660;2023-09-19T15:14:34;3.90;;;1.58;;
13114;SDS011;6623;52.120;8.660;2023-09-19T15:16:59;3.53;;;1.63;;
13114;SDS011;6623;52.120;8.660;2023-09-19T15:19:25;4.47;;;1.85;;
13114;SDS011;6623;52.120;8.660;2023-09-19T15:21:50;3.28;;;1.60;;
13114;SDS011;6623;52.120;8.660;2023-09-19T15:24:16;2.55;;;1.33;;
13114;SDS011;6623;52.120;8.660;2023-09-19T15:26:41;3.63;;;1.67;;
13114;SDS011;6623;52.120;8.660;2023-09-19T15:29:08;2.72;;;1.45;;
13114;SDS011;6623;52.120;8.660;2023-09-19T15:31:35;3.72;;;1.95;;
13114;SDS011;6623;52.120;8.660;2023-09-19T15:34:04;3.75;;;1.27;;
13114;SDS011;6623;52.120;8.660;2023-09-19T15:36:32;2.83;;;1.37;;
13114;SDS011;6623;52.120;8.660;2023-09-19T15:39:04;4.00;;;1.50;;
13114;SDS011;6623;52.120;8.660;2023-09-19T15:41:33;2.88;;;1.50;;
13114;SDS011;6623;52.120;8.660;2023-09-19T15:44:00;3.57;;;1.73;;
13114;SDS011;6623;52.120;8.660;2023-09-19T15:46:30;2.92;;;1.60;;
13114;SDS011;6623;52.120;8.660;2023-09-19T15:48:59;2.97;;;1.33;;
13114;SDS011;6623;52.120;8.660;2023-09-19T15:51:25;3.78;;;1.60;;
13114;SDS011;6623;52.120;8.660;2023-09-19T15:53:52;3.20;;;1.25;;
13114;SDS011;6623;52.120;8.660;2023-09-19T15:56:20;3.05;;;1.40;;
13114;SDS011;6623;52.120;8.660;2023-09-19T15:58:51;4.22;;;1.40;;
13114;SDS011;6623;52.120;8.660;2023-09-19T16:01:18;2.53;;;1.42;;
13114;SDS011;6623;52.120;8.660;2023-09-19T16:03:48;3.10;;;1.67;;
13114;SDS011;6623;52.120;8.660;2023-09-19T16:06:18;3.70;;;1.63;;